Time;durP1;ratioP1;P1;durP2;ratioP2;P2;SDS_P1;SDS_P2;PMS_P1;PMS_P2;Temp;Humidity;BMP_temperature;BMP_pressure;BME280_temperature;BME280_humidity;BME280_pressure;Samples;Min_cycle;Max_cycle;Signal;HPM_P1;HPM_P2
2024/01/25 00:01:28;;;;;;;29.80;6.00;;;;;;;10.16;66.25;101759.34;4823289;29;20049;-65
2024/01/25 00:04:31;;;;;;;;;;;;;;;10.14;66.02;101740.25;4823620;29;20048;-65
2024/01/25 00:07:34;;;;;;;16.40;5.50;;;;;;;10.12;66.17;101747.28;4823032;29;19924;-65
2024/01/25 00:10:37;;;;;;;;;;;;;;;10.13;65.86;101730.69;4823677;29;20053;-66
2024/01/25 00:13:40;;;;;;;34.83;5.97;;;;;;;9.97;66.20;101733.78;4823240;29;19931;-66
2024/01/25 00:16:43;;;;;;;;;;;;;;;9.93;66.33;101732.16;4823654;29;20051;-65
2024/01/25 00:19:47;;;;;;;20.27;5.63;;;;;;;9.85;66.81;101734.13;4823390;29;20385;-66
2024/01/25 00:22:50;;;;;;;22.77;6.18;;;;;;;9.87;66.96;101719.28;4812172;29;20061;-65
2024/01/25 00:25:55;;;;;;;24.13;5.80;;;;;;;9.91;66.66;101727.88;4823256;29;20130;-65
2024/01/25 00:28:59;;;;;;;28.23;5.80;;;;;;;9.82;66.80;101718.56;4822455;29;20103;-65
2024/01/25 00:32:02;;;;;;;24.25;8.07;;;;;;;9.90;67.20;101727.03;4826422;29;20050;-65
2024/01/25 00:35:06;;;;;;;24.25;5.72;;;;;;;9.93;67.25;101734.78;4826413;29;20057;-65
2024/01/25 00:38:09;;;;;;;20.55;6.35;;;;;;;9.98;67.02;101729.41;4826291;29;20108;-66
2024/01/25 00:41:16;;;;;;;;;;;;;;;9.97;66.79;101738.16;4826550;29;20069;-65
2024/01/25 00:44:20;;;;;;;20.40;5.18;;;;;;;9.95;66.82;101734.72;4825881;29;19924;-65
2024/01/25 00:47:24;;;;;;;24.48;5.72;;;;;;;9.92;67.14;101724.34;4826113;29;20094;-65
2024/01/25 00:50:27;;;;;;;24.20;6.63;;;;;;;9.93;67.12;101720.88;4825860;29;20065;-65
2024/01/25 00:53:32;;;;;;;;;;;;;;;9.92;67.42;101730.47;4825826;29;20057;-65
2024/01/25 00:56:38;;;;;;;20.92;5.53;;;;;;;9.88;67.14;101738.44;4825932;29;19924;-65
2024/01/25 00:59:42;;;;;;;26.17;7.15;;;;;;;9.85;67.19;101739.38;4814705;29;20057;-65
2024/01/25 01:02:45;;;;;;;;;;;;;;;9.76;67.40;101750.97;4825069;29;20049;-65
2024/01/25 01:05:49;;;;;;;29.42;8.57;;;;;;;9.72;68.25;101740.63;4825568;29;19965;-65
2024/01/25 01:08:52;;;;;;;;;;;;;;;9.73;68.29;101737.09;4826247;29;20045;-65
2024/01/25 01:11:56;;;;;;;31.00;9.68;;;;;;;9.71;68.08;101741.53;4825610;29;19924;-66
2024/01/25 01:14:59;;;;;;;24.95;7.03;;;;;;;9.66;68.58;101743.41;4825599;29;20045;-65
2024/01/25 01:18:05;;;;;;;22.65;6.55;;;;;;;9.64;68.91;101745.25;4825650;29;20089;-65
2024/01/25 01:21:08;;;;;;;24.17;6.65;;;;;;;9.64;68.68;101755.69;4825925;29;20053;-65
2024/01/25 01:24:11;;;;;;;;;;;;;;;9.61;69.12;101761.00;4825957;29;20040;-65
2024/01/25 01:27:16;;;;;;;21.65;5.93;;;;;;;9.66;69.12;101765.16;4825493;29;19942;-65
2024/01/25 01:30:19;;;;;;;21.35;6.15;;;;;;;9.67;69.13;101773.88;4825716;29;20526;-65
2024/01/25 01:33:22;;;;;;;;;;;;;;;9.69;69.04;101770.31;4824795;29;20130;-65
2024/01/25 01:36:25;;;;;;;23.58;6.10;;;;;;;9.67;69.24;101766.91;4824168;29;19923;-65
2024/01/25 01:39:28;;;;;;;;;;;;;;;9.67;69.30;101771.28;4824718;29;20050;-65
2024/01/25 01:42:33;;;;;;;26.83;7.63;;;;;;;9.67;69.81;101781.72;4823932;29;19923;-65
2024/01/25 01:45:36;;;;;;;30.58;10.15;;;;;;;9.69;69.85;101770.31;4824714;29;20421;-65
2024/01/25 01:48:40;;;;;;;32.47;9.07;;;;;;;9.70;69.52;101776.38;4825193;29;20592;-65
2024/01/25 01:51:43;;;;;;;28.20;8.23;;;;;;;9.70;69.27;101784.22;4825239;29;20057;-65
2024/01/25 01:54:47;;;;;;;;;;;;;;;9.72;69.42;101777.19;4824731;29;20054;-65
2024/01/25 01:57:51;;;;;;;21.70;5.57;;;;;;;9.67;69.54;101776.50;4824857;29;20392;-65
2024/01/25 02:00:55;;;;;;;31.65;9.70;;;;;;;9.64;69.60;101792.25;4825071;29;20440;-65
2024/01/25 02:03:58;;;;;;;34.22;9.38;;;;;;;9.62;70.13;101787.06;4824965;29;20115;-65
2024/01/25 02:07:02;;;;;;;27.27;6.68;;;;;;;9.67;70.31;101787.78;4824475;29;20053;-65
2024/01/25 02:10:05;;;;;;;;;;;;;;;9.68;70.23;101792.09;4825494;29;20058;-65
2024/01/25 02:13:08;;;;;;;32.40;8.63;;;;;;;9.69;70.34;101780.75;4823666;29;19977;-65
2024/01/25 02:16:12;;;;;;;27.75;8.88;;;;;;;9.73;70.21;101789.34;4824626;29;20049;-65
2024/01/25 02:19:15;;;;;;;24.77;8.18;;;;;;;9.81;69.84;101783.94;4824252;29;20138;-65
2024/01/25 02:22:19;;;;;;;;;;;;;;;9.80;69.92;101787.44;4824950;29;20084;-65
2024/01/25 02:25:22;;;;;;;28.80;7.25;;;;;;;9.85;70.15;101789.00;4824412;29;19923;-65
2024/01/25 02:28:26;;;;;;;20.85;5.50;;;;;;;9.89;69.98;101793.25;4824105;29;20544;-65
2024/01/25 02:31:29;;;;;;;26.63;5.50;;;;;;;9.91;69.64;101806.25;4823863;29;20137;-65
2024/01/25 02:34:33;;;;;;;26.85;7.15;;;;;;;9.92;69.16;101797.50;4823280;29;20126;-65
2024/01/25 02:37:36;;;;;;;23.88;5.45;;;;;;;9.91;69.44;101803.66;4824165;29;20560;-65
2024/01/25 02:40:39;;;;;;;21.48;5.78;;;;;;;9.83;69.84;101788.22;4823853;29;20122;-65
2024/01/25 02:43:43;;;;;;;29.02;5.95;;;;;;;9.84;69.71;101800.34;4824062;29;20641;-65
2024/01/25 02:46:46;;;;;;;25.25;5.20;;;;;;;9.82;69.84;101804.75;4823343;29;20051;-65
2024/01/25 02:49:49;;;;;;;;;;;;;;;9.79;69.46;101786.56;4823799;29;20065;-65
2024/01/25 02:52:53;;;;;;;30.98;6.57;;;;;;;9.72;69.51;101791.09;4811977;29;20440;-65
2024/01/25 02:55:56;;;;;;;26.05;8.20;;;;;;;9.68;69.69;101804.31;4813069;29;20141;-65
2024/01/25 02:58:59;;;;;;;;;;;;;;;9.60;69.68;101790.59;4824273;29;20052;-65
2024/01/25 03:02:02;;;;;;;20.45;5.15;;;;;;;9.52;70.03;101789.06;4824303;29;20409;-65
2024/01/25 03:05:06;;;;;;;;;;;;;;;9.48;70.27;101805.72;4824449;29;20067;-65
2024/01/25 03:08:09;;;;;;;24.52;5.72;;;;;;;9.43;70.38;101804.97;4824104;29;19974;-65
2024/01/25 03:11:12;;;;;;;;;;;;;;;9.38;70.38;101803.38;4824373;29;20173;-65
2024/01/25 03:14:15;;;;;;;20.23;5.30;;;;;;;9.37;71.15;101804.28;4823921;29;19974;-65
2024/01/25 03:17:19;;;;;;;28.00;6.20;;;;;;;9.34;70.76;101807.84;4824021;29;20058;-65
2024/01/25 03:20:22;;;;;;;23.38;5.53;;;;;;;9.28;70.41;101806.25;4824012;29;20053;-65
2024/01/25 03:23:25;;;;;;;21.23;5.07;;;;;;;9.22;70.47;101805.53;4823790;29;20511;-65
2024/01/25 03:26:29;;;;;;;20.38;5.32;;;;;;;9.14;70.75;101808.34;4822749;29;20423;-65
2024/01/25 03:29:32;;;;;;;25.17;5.90;;;;;;;9.10;70.90;101798.06;4823223;29;20049;-65
2024/01/25 03:32:36;;;;;;;20.10;5.22;;;;;;;9.05;71.24;101813.81;4823310;29;20092;-65
2024/01/25 03:35:39;;;;;;;;;;;;;;;9.01;71.49;101818.25;4824149;29;20405;-65
2024/01/25 03:38:42;;;;;;;20.40;5.20;;;;;;;8.96;71.52;101820.09;4823567;29;19924;-65
2024/01/25 03:41:45;;;;;;;;;;;;;;;8.93;71.48;101833.22;4823214;29;20515;-65
2024/01/25 03:44:48;;;;;;;15.95;3.67;;;;;;;8.90;71.76;101825.47;4823276;29;19924;-65
2024/01/25 03:47:51;;;;;;;16.33;4.55;;;;;;;8.89;72.03;101830.75;4822756;29;20054;-65
2024/01/25 03:50:57;;;;;;;22.17;4.85;;;;;;;8.87;71.95;101822.97;4823863;29;20114;-65
2024/01/25 03:54:00;;;;;;;20.08;5.13;;;;;;;8.86;71.87;101823.84;4823281;29;20085;-65
2024/01/25 03:57:03;;;;;;;;;;;;;;;8.83;72.22;101823.91;4812733;29;20056;-65
2024/01/25 04:00:07;;;;;;;27.75;6.40;;;;;;;8.83;72.63;101822.16;4823592;29;19924;-65
2024/01/25 04:03:11;;;;;;;20.33;5.00;;;;;;;8.84;72.57;101836.94;4823460;29;20432;-65
2024/01/25 04:06:14;;;;;;;28.10;5.43;;;;;;;8.88;72.29;101842.09;4825026;29;20053;-65
2024/01/25 04:09:17;;;;;;;23.50;5.57;;;;;;;8.82;72.16;101848.28;4826301;29;20598;-65
2024/01/25 04:12:20;;;;;;;;;;;;;;;8.81;72.66;101846.59;4826585;29;20053;-65
2024/01/25 04:15:23;;;;;;;18.87;4.20;;;;;;;8.79;72.57;101850.97;4826087;29;19931;-65
2024/01/25 04:18:27;;;;;;;24.48;5.88;;;;;;;8.78;72.64;101849.28;4826771;29;20271;-65
2024/01/25 04:21:30;;;;;;;24.70;6.90;;;;;;;8.77;73.31;101845.78;4826884;29;20045;-65
2024/01/25 04:24:33;;;;;;;17.45;5.47;;;;;;;8.77;73.05;101845.78;4826563;29;20103;-65
2024/01/25 04:27:37;;;;;;;;;;;;;;;8.76;73.60;101843.22;4826089;29;20053;-65
2024/01/25 04:30:41;;;;;;;16.67;4.53;;;;;;;8.77;73.67;101852.75;4825892;29;19924;-65
2024/01/25 04:33:45;;;;;;;21.58;5.00;;;;;;;8.77;73.89;101850.13;4825151;29;20050;-65
2024/01/25 04:36:48;;;;;;;23.20;5.72;;;;;;;8.79;74.17;101844.00;4826604;29;20126;-65
2024/01/25 04:39:52;;;;;;;21.48;4.82;;;;;;;8.83;74.22;101850.84;4825874;29;20052;-65
2024/01/25 04:42:55;;;;;;;;;;;;;;;8.86;74.53;101849.94;4826169;29;20572;-65
2024/01/25 04:45:59;;;;;;;23.27;5.53;;;;;;;8.90;74.88;101851.56;4825502;29;20389;-65
2024/01/25 04:49:02;;;;;;;;;;;;;;;8.97;74.15;101853.16;4825884;29;20142;-65
2024/01/25 04:52:06;;;;;;;31.63;8.13;;;;;;;9.02;74.68;101848.66;4825760;29;19924;-65
2024/01/25 04:55:09;;;;;;;;;;;;;;;9.06;74.52;101863.38;4826430;29;20111;-65
2024/01/25 04:58:12;;;;;;;28.02;7.05;;;;;;;9.08;74.18;101866.78;4825847;29;20443;-65
2024/01/25 05:01:15;;;;;;;33.35;6.75;;;;;;;9.10;74.05;101863.28;4825902;29;20142;-65
2024/01/25 05:04:18;;;;;;;;;;;;;;;9.09;74.22;101875.44;4822134;29;20041;-65
2024/01/25 05:07:22;;;;;;;24.58;5.65;;;;;;;9.07;74.24;101888.56;4825334;29;20419;-65
2024/01/25 05:10:25;;;;;;;27.70;6.38;;;;;;;9.06;73.94;101899.88;4814083;29;20053;-66
2024/01/25 05:13:28;;;;;;;;;;;;;;;9.01;74.04;101900.88;4825304;29;20053;-66
2024/01/25 05:16:31;;;;;;;31.35;14.55;;;;;;;8.98;74.06;101901.81;4824153;29;19924;-64
2024/01/25 05:19:34;;;;;;;32.15;9.55;;;;;;;8.99;74.15;101900.91;4825150;29;20077;-66
2024/01/25 05:22:40;;;;;;;;;;;;;;;8.92;73.94;101908.94;4825996;29;20092;-65
2024/01/25 05:25:43;;;;;;;28.50;5.68;;;;;;;8.89;74.49;101907.25;4825373;29;20290;-65
2024/01/25 05:28:46;;;;;;;;;;;;;;;8.89;74.19;101911.59;4825719;29;20048;-65
2024/01/25 05:31:49;;;;;;;25.55;5.57;;;;;;;8.85;74.51;101916.03;4825335;29;19996;-65
2024/01/25 05:34:53;;;;;;;;;;;;;;;8.82;74.47;101923.94;4825837;29;20077;-66
2024/01/25 05:37:56;;;;;;;27.03;7.03;;;;;;;8.77;74.95;101938.81;4825464;29;19961;-67
2024/01/25 05:40:59;;;;;;;;;;;;;;;8.76;74.91;101937.09;4825859;29;20052;-66
2024/01/25 05:44:31;;;;;;;26.35;7.85;;;;;;;8.76;74.88;101937.97;4825197;29;19924;-66
2024/01/25 05:47:35;;;;;;;25.45;7.28;;;;;;;8.76;75.14;101931.88;4824861;29;20099;-73
2024/01/25 05:50:38;;;;;;;33.17;7.38;;;;;;;8.75;75.29;101935.41;4824475;29;20061;-66
2024/01/25 05:53:41;;;;;;;24.15;7.05;;;;;;;8.74;75.37;101928.44;4824820;29;20052;-67
2024/01/25 05:56:45;;;;;;;;;;;;;;;8.70;75.60;101945.91;4825292;29;20548;-66
2024/01/25 05:59:48;;;;;;;25.80;6.40;;;;;;;8.71;75.83;101949.38;4825077;29;19924;-68
2024/01/25 06:02:51;;;;;;;22.42;6.15;;;;;;;8.72;75.91;101945.91;4825067;29;20567;-65
2024/01/25 06:05:55;;;;;;;22.38;6.50;;;;;;;8.68;75.53;101949.44;4825037;29;20049;-66
2024/01/25 06:08:58;;;;;;;;;;;;;;;8.63;75.78;101956.53;4825409;29;20095;-68
2024/01/25 06:12:01;;;;;;;29.40;7.53;;;;;;;8.61;75.78;101943.50;4825309;29;20130;-65
2024/01/25 06:15:04;;;;;;;;;;;;;;;8.58;75.64;101949.66;4825170;29;20101;-66
2024/01/25 06:18:08;;;;;;;21.15;5.57;;;;;;;8.56;75.47;101950.59;4823065;29;19928;-67
2024/01/25 06:21:11;;;;;;;24.45;7.38;;;;;;;8.51;75.85;101947.19;4822738;29;20511;-66
2024/01/25 06:24:15;;;;;;;23.92;6.90;;;;;;;8.50;75.73;101946.34;4812045;29;20049;-66
2024/01/25 06:27:19;;;;;;;30.25;6.88;;;;;;;8.44;76.01;101941.25;4812536;29;20138;-66
2024/01/25 06:30:23;;;;;;;22.50;6.03;;;;;;;8.38;75.84;101939.63;4824177;29;20057;-65
2024/01/25 06:33:26;;;;;;;20.80;6.10;;;;;;;8.36;75.58;101935.34;4824687;29;20111;-66
2024/01/25 06:36:29;;;;;;;;;;;;;;;8.32;76.30;101941.47;4824997;29;20098;-67
2024/01/25 06:39:34;;;;;;;19.17;5.05;;;;;;;8.28;75.92;101945.03;4824483;29;19967;-66
2024/01/25 06:42:37;;;;;;;25.73;6.85;;;;;;;8.26;75.90;101957.22;4824471;29;20524;-74
2024/01/25 06:45:41;;;;;;;25.85;8.02;;;;;;;8.24;76.73;101953.81;4824433;29;20107;-77
2024/01/25 06:48:44;;;;;;;54.47;27.10;;;;;;;8.20;76.01;101963.44;4824132;29;20089;-65
2024/01/25 06:51:47;;;;;;;;;;;;;;;8.09;75.81;101961.03;4824646;29;20429;-65
2024/01/25 06:54:50;;;;;;;30.23;9.98;;;;;;;7.96;75.79;101969.97;4824238;29;19932;-64
2024/01/25 06:57:54;;;;;;;20.80;6.22;;;;;;;7.88;75.82;101977.91;4823662;29;20206;-65
2024/01/25 07:00:59;;;;;;;29.63;8.65;;;;;;;7.77;75.82;101974.63;4810930;29;20102;-65
2024/01/25 07:04:05;;;;;;;26.30;9.25;;;;;;;7.71;76.16;101977.34;4801263;29;20047;-66
2024/01/25 07:07:09;;;;;;;;;;;;;;;7.65;76.15;101980.91;4813965;29;20463;-65
2024/01/25 07:10:13;;;;;;;23.95;8.25;;;;;;;7.61;76.01;101979.25;4813966;29;19932;-64
2024/01/25 07:13:17;;;;;;;33.80;10.50;;;;;;;7.54;76.30;101969.81;4803649;29;20054;-65
2024/01/25 07:16:21;;;;;;;;;;;;;;;7.51;77.00;101961.22;4812987;29;20050;-65
2024/01/25 07:19:24;;;;;;;21.77;8.82;;;;;;;7.52;77.00;101968.13;4814178;29;20298;-65
2024/01/25 07:22:27;;;;;;;24.92;9.02;;;;;;;7.45;76.60;101962.16;4809415;29;20504;-65
2024/01/25 07:25:31;;;;;;;30.63;10.27;;;;;;;7.40;76.78;101967.44;4804424;29;20080;-66
2024/01/25 07:28:34;;;;;;;;;;;;;;;7.31;76.69;101970.19;4804946;29;20062;-65
2024/01/25 07:31:37;;;;;;;31.08;11.65;;;;;;;7.30;76.96;101978.00;4804291;29;19924;-66
2024/01/25 07:34:40;;;;;;;;;;;;;;;7.24;76.65;101994.56;4804693;29;20054;-66
2024/01/25 07:37:43;;;;;;;26.88;6.32;;;;;;;7.14;76.16;101988.63;4804717;29;19990;-66
2024/01/25 07:40:47;;;;;;;20.33;7.20;;;;;;;7.11;76.86;101983.47;4806623;29;20528;-65
2024/01/25 07:43:54;;;;;;;;;;;;;;;7.08;77.27;101980.94;4808150;29;20101;-65
2024/01/25 07:46:57;;;;;;;23.75;9.00;;;;;;;7.09;77.32;101980.06;4808314;29;20391;-65
2024/01/25 07:50:01;;;;;;;26.55;8.30;;;;;;;7.09;77.35;101972.25;4807505;29;20065;-65
2024/01/25 07:53:04;;;;;;;25.98;8.90;;;;;;;7.08;77.03;101967.91;4807753;29;20694;-65
2024/01/25 07:56:10;;;;;;;;;;;;;;;7.03;77.28;101969.75;4807916;29;20054;-67
2024/01/25 07:59:14;;;;;;;32.40;7.50;;;;;;;7.01;76.89;101984.50;4807847;29;19924;-66
2024/01/25 08:02:19;;;;;;;19.30;6.25;;;;;;;6.94;77.09;101983.72;4807547;29;20119;-66
2024/01/25 08:05:22;;;;;;;18.63;5.30;;;;;;;6.90;77.19;101991.59;4807270;29;20049;-66
2024/01/25 08:08:25;;;;;;;;;;;;;;;6.84;77.21;101979.53;4795241;29;20061;-66
2024/01/25 08:11:28;;;;;;;23.73;5.72;;;;;;;6.84;77.92;101994.28;4805253;29;19924;-66
2024/01/25 08:14:32;;;;;;;;;;;;;;;6.83;77.95;101990.84;4806155;29;20589;-66
2024/01/25 08:17:36;;;;;;;21.13;8.83;;;;;;;6.88;78.16;101995.97;4807207;29;19925;-65
2024/01/25 08:20:39;;;;;;;25.45;9.73;;;;;;;6.90;78.32;101992.47;4807139;29;20066;-66
2024/01/25 08:23:42;;;;;;;42.30;19.65;;;;;;;6.92;77.77;101997.63;4807020;29;20429;-66
2024/01/25 08:26:46;;;;;;;;;;;;;;;6.94;78.60;101990.69;4807572;29;20049;-66
2024/01/25 08:29:49;;;;;;;31.70;9.93;;;;;;;7.00;78.37;101990.59;4807075;29;19926;-66
2024/01/25 08:32:52;;;;;;;24.17;6.90;;;;;;;6.99;78.98;101994.09;4806975;29;20222;-67
2024/01/25 08:35:56;;;;;;;30.13;9.02;;;;;;;7.07;79.02;101988.75;4806903;29;20431;-65
2024/01/25 08:38:59;;;;;;;25.85;7.82;;;;;;;7.10;79.22;101989.56;4806815;29;20095;-65
2024/01/25 08:42:06;;;;;;;20.60;6.20;;;;;;;7.15;79.36;101998.19;4807004;29;20054;-65
2024/01/25 08:45:28;;;;;;;25.40;6.78;;;;;;;7.21;79.04;102005.91;4806694;29;20172;-66
2024/01/25 08:48:40;;;;;;;22.60;6.65;;;;;;;7.23;78.38;101996.31;4806712;29;20528;-65
2024/01/25 08:51:43;;;;;;;25.45;6.68;;;;;;;7.26;78.93;102007.56;4806314;29;20054;-65
2024/01/25 08:54:46;;;;;;;;;;;;;;;7.29;78.81;102020.53;4809389;29;20097;-65
2024/01/25 08:57:50;;;;;;;21.17;5.70;;;;;;;7.29;78.72;102013.59;4813652;29;20394;-65
2024/01/25 09:00:53;;;;;;;;;;;;;;;7.31;79.64;102010.97;4795756;29;20457;-65
2024/01/25 09:04:00;;;;;;;19.90;5.45;;;;;;;7.42;79.85;102016.84;4806719;29;19924;-68
2024/01/25 09:07:03;;;;;;;25.40;6.88;;;;;;;7.48;79.53;102015.91;4806555;29;20054;-65
2024/01/25 09:10:07;;;;;;;21.80;5.57;;;;;;;7.49;79.24;102021.09;4804513;29;20077;-66
2024/01/25 09:13:10;;;;;;;28.02;5.50;;;;;;;7.48;79.45;102013.31;4805675;29;20072;-66
2024/01/25 09:16:16;;;;;;;;;;;;;;;7.50;79.62;102017.63;4806601;29;20054;-65
2024/01/25 09:19:19;;;;;;;20.85;5.82;;;;;;;7.51;80.26;102011.50;4806106;29;20299;-65
2024/01/25 09:22:22;;;;;;;;;;;;;;;7.60;80.54;102018.31;4812724;29;20046;-66
2024/01/25 09:25:25;;;;;;;20.33;5.82;;;;;;;7.64;80.53;102018.25;4813906;29;20263;-66
2024/01/25 09:28:30;;;;;;;;;;;;;;;7.71;80.44;102005.97;4812069;29;20085;-66
2024/01/25 09:31:34;;;;;;;23.60;7.05;;;;;;;7.77;80.71;101998.06;4808330;29;20389;-66
2024/01/25 09:34:37;;;;;;;;;;;;;;;7.87;80.76;102011.78;4816159;29;20049;-66
2024/01/25 09:37:40;;;;;;;27.00;6.57;;;;;;;7.98;80.87;102015.06;4824015;29;20324;-66
2024/01/25 09:40:44;;;;;;;23.17;5.75;;;;;;;8.09;80.66;102020.09;4823724;29;20118;-66
2024/01/25 09:43:47;;;;;;;24.42;5.63;;;;;;;8.20;80.71;102025.09;4823949;29;20041;-66
2024/01/25 09:46:51;;;;;;;25.08;6.53;;;;;;;8.31;80.69;102025.75;4823855;29;20550;-66
2024/01/25 09:49:55;;;;;;;25.00;6.80;;;;;;;8.32;79.10;102028.31;4824070;29;20097;-65
2024/01/25 09:52:59;;;;;;;28.80;6.22;;;;;;;8.47;78.64;102019.41;4824033;29;20053;-67
2024/01/25 09:56:08;;;;;;;34.42;7.03;;;;;;;8.35;76.55;102014.38;4823645;29;20069;-65
2024/01/25 09:59:11;;;;;;;29.85;7.70;;;;;;;8.51;77.07;102013.22;4823115;29;20656;-66
2024/01/25 10:02:15;;;;;;;32.33;6.82;;;;;;;8.48;75.45;102015.91;4822657;29;20191;-66
2024/01/25 10:05:18;;;;;;;31.02;7.35;;;;;;;8.60;75.99;102015.66;4823436;29;20049;-65
2024/01/25 10:08:23;;;;;;;;;;;;;;;8.73;76.05;102020.63;4824158;29;20053;-65
2024/01/25 10:11:29;;;;;;;30.48;7.13;;;;;;;8.72;74.44;102024.13;4823834;29;19923;-65
2024/01/25 10:14:32;;;;;;;27.25;6.45;;;;;;;8.88;74.14;102035.09;4823104;29;20069;-65
2024/01/25 10:17:35;;;;;;;;;;;;;;;8.97;73.71;102035.75;4823905;29;20050;-66
2024/01/25 10:20:42;;;;;;;27.33;6.82;;;;;;;9.13;73.09;102035.44;4823611;29;20057;-66
2024/01/25 10:23:47;;;;;;;20.08;4.50;;;;;;;9.16;72.39;102030.16;4823509;29;20563;-66
2024/01/25 10:26:50;;;;;;;25.73;6.50;;;;;;;9.22;70.84;102040.44;4822591;29;20081;-66
2024/01/25 10:29:53;;;;;;;24.60;6.32;;;;;;;9.24;71.29;102034.28;4823175;29;20069;-65
2024/01/25 10:32:58;;;;;;;;;;;;;;;9.35;70.99;102036.66;4823732;29;20098;-66
2024/01/25 10:36:02;;;;;;;33.80;7.03;;;;;;;9.41;69.76;102041.75;4823082;29;20325;-65
2024/01/25 10:39:07;;;;;;;28.08;7.75;;;;;;;9.50;69.42;102038.91;4823085;29;20054;-66
2024/01/25 10:42:10;;;;;;;28.23;6.18;;;;;;;9.46;68.46;102044.25;4822985;29;20484;-66
2024/01/25 10:45:14;;;;;;;22.95;6.18;;;;;;;9.60;68.48;102046.50;4823377;29;20496;-66
2024/01/25 10:48:17;;;;;;;30.25;6.47;;;;;;;9.57;67.09;102042.22;4822677;29;20329;-67
2024/01/25 10:51:21;;;;;;;33.60;7.50;;;;;;;9.72;67.62;102041.00;4823097;29;20053;-66
2024/01/25 10:54:24;;;;;;;23.10;5.65;;;;;;;9.77;67.11;102034.78;4811684;29;20098;-66
2024/01/25 10:57:34;;;;;;;;;;;;;;;9.84;67.02;102029.41;4823488;29;20073;-66
2024/01/25 11:00:38;;;;;;;29.95;7.05;;;;;;;9.75;65.63;102013.03;4823062;29;19923;-66
2024/01/25 11:03:46;;;;;;;22.90;5.75;;;;;;;9.74;65.35;102013.09;4822908;29;20472;-66
2024/01/25 11:06:49;;;;;;;34.15;8.20;;;;;;;9.80;65.81;102006.88;4822885;29;20142;-66
2024/01/25 11:09:54;;;;;;;26.70;5.68;;;;;;;9.81;64.29;102004.22;4822694;29;20205;-66
2024/01/25 11:12:59;;;;;;;21.13;4.60;;;;;;;9.83;64.69;102010.25;4822991;29;20053;-67
2024/01/25 11:16:15;;;;;;;20.13;5.57;;;;;;;9.73;63.11;102006.13;4822978;29;20048;-65
2024/01/25 11:19:21;;;;;;;28.08;8.02;;;;;;;9.71;63.23;101995.75;4822624;29;20077;-66
2024/01/25 11:22:34;;;;;;;31.95;8.13;;;;;;;9.85;63.69;101981.47;4822582;29;20225;-66
2024/01/25 11:25:37;;;;;;;;;;;;;;;9.88;62.73;101977.00;4822758;29;20143;-66
2024/01/25 11:28:40;;;;;;;38.70;13.15;;;;;;;9.87;63.12;101972.69;4822495;29;19923;-66
2024/01/25 11:31:45;;;;;;;29.63;9.13;;;;;;;10.07;62.53;101958.25;4822449;29;20515;-66
2024/01/25 11:34:58;;;;;;;25.92;7.65;;;;;;;10.00;61.20;101971.47;4822411;29;20153;-67
2024/01/25 11:38:01;;;;;;;19.50;6.18;;;;;;;10.28;61.75;101962.91;4822390;29;20120;-66
2024/01/25 11:41:05;;;;;;;22.52;6.78;;;;;;;10.15;60.80;101964.13;4822298;29;20069;-66
2024/01/25 11:44:13;;;;;;;21.38;6.10;;;;;;;10.25;60.58;101963.81;4822309;29;20046;-66
2024/01/25 11:47:16;;;;;;;25.77;7.32;;;;;;;10.30;60.63;101953.25;4822189;29;20138;-66
2024/01/25 11:50:22;;;;;;;25.65;7.10;;;;;;;10.31;59.86;101947.16;4822059;29;20525;-66
2024/01/25 11:53:25;;;;;;;22.92;5.22;;;;;;;10.30;59.59;101950.63;4822312;29;20580;-66
2024/01/25 11:56:32;;;;;;;21.10;6.18;;;;;;;10.36;59.98;101942.63;4821606;29;20485;-66
2024/01/25 11:59:36;;;;;;;17.77;5.22;;;;;;;10.46;59.85;101935.38;4822106;29;20111;-66
2024/01/25 12:02:40;;;;;;;24.45;5.40;;;;;;;10.53;59.31;101936.03;4822651;29;20508;-67
2024/01/25 12:05:43;;;;;;;17.95;5.30;;;;;;;10.57;58.93;101927.22;4821982;29;20118;-66
2024/01/25 12:08:51;;;;;;;17.17;4.82;;;;;;;10.63;58.84;101932.28;4822263;29;20516;-66
2024/01/25 12:11:54;;;;;;;22.23;5.63;;;;;;;10.54;58.12;101937.78;4822537;29;20626;-66
2024/01/25 12:14:58;;;;;;;;;;;;;;;10.43;58.20;101920.66;4822446;29;20127;-66
2024/01/25 12:18:02;;;;;;;22.38;5.97;;;;;;;10.58;58.73;101923.69;4811031;29;19939;-66
2024/01/25 12:21:05;;;;;;;22.65;5.43;;;;;;;10.63;58.61;101922.66;4821255;29;20099;-67
2024/01/25 12:24:10;;;;;;;23.33;5.88;;;;;;;10.68;57.97;101922.50;4821309;29;20115;-66
2024/01/25 12:27:15;;;;;;;19.60;5.57;;;;;;;10.77;58.30;101913.53;4824344;29;20045;-66
2024/01/25 12:30:18;;;;;;;18.35;4.85;;;;;;;10.78;57.38;101910.84;4825133;29;20463;-66
2024/01/25 12:33:21;;;;;;;;;;;;;;;10.83;57.52;101908.13;4825462;29;20416;-66
2024/01/25 12:36:24;;;;;;;15.80;5.18;;;;;;;10.85;56.80;101901.94;4825102;29;19977;-66
2024/01/25 12:39:28;;;;;;;25.27;6.63;;;;;;;10.84;56.69;101902.81;4824976;29;20114;-66
2024/01/25 12:42:31;;;;;;;26.65;7.10;;;;;;;10.84;56.81;101894.97;4824794;29;20045;-67
2024/01/25 12:45:34;;;;;;;;;;;;;;;11.01;57.25;101896.19;4825292;29;20045;-66
2024/01/25 12:48:37;;;;;;;22.33;5.65;;;;;;;11.06;56.74;101883.81;4824447;29;19977;-67
2024/01/25 12:51:41;;;;;;;24.02;8.00;;;;;;;11.19;57.05;101882.50;4824882;29;20069;-66
2024/01/25 12:54:44;;;;;;;;;;;;;;;11.27;55.97;101883.13;4825101;29;20049;-66
2024/01/25 12:57:47;;;;;;;31.17;8.93;;;;;;;11.22;56.78;101876.31;4825092;29;20007;-66
2024/01/25 13:00:50;;;;;;;29.27;13.38;;;;;;;11.29;55.98;101860.34;4824303;29;20061;-68
2024/01/25 13:03:53;;;;;;;;;;;;;;;11.32;55.61;101870.72;4824830;29;20429;-67
2024/01/25 13:06:56;;;;;;;20.38;6.90;;;;;;;11.35;55.57;101860.13;4825411;29;19999;-67
2024/01/25 13:10:00;;;;;;;26.23;7.40;;;;;;;11.45;55.90;101865.06;4824388;29;20053;-69
2024/01/25 13:13:03;;;;;;;;;;;;;;;11.58;55.29;101859.38;4813589;29;20053;-70
2024/01/25 13:16:07;;;;;;;25.65;6.28;;;;;;;11.69;54.70;101864.22;4824066;29;20406;-69
2024/01/25 13:19:12;;;;;;;20.85;6.57;;;;;;;11.66;54.74;101861.69;4824961;29;20468;-69
2024/01/25 13:22:21;;;;;;;19.95;5.72;;;;;;;11.63;55.81;101848.72;4824467;29;20187;-69
2024/01/25 13:25:27;;;;;;;23.38;6.55;;;;;;;11.77;56.74;101838.59;4824837;29;20527;-69
2024/01/25 13:28:32;;;;;;;27.98;6.65;;;;;;;11.94;56.49;101845.03;4824371;29;20049;-69
2024/01/25 13:31:36;;;;;;;17.92;5.22;;;;;;;12.00;55.35;101853.50;4824517;29;20516;-68
2024/01/25 13:34:41;;;;;;;19.42;5.88;;;;;;;11.94;54.49;101858.97;4824102;29;20049;-67
2024/01/25 13:37:45;;;;;;;18.10;6.25;;;;;;;11.95;55.31;101857.22;4823416;29;20053;-67
2024/01/25 13:40:50;;;;;;;26.02;7.50;;;;;;;11.96;56.07;101846.66;4824091;29;20057;-67
2024/01/25 13:43:53;;;;;;;22.40;7.13;;;;;;;11.99;56.03;101853.56;4824123;29;20080;-69
2024/01/25 13:46:58;;;;;;;20.98;7.05;;;;;;;11.97;55.56;101847.53;4824048;29;20053;-70
2024/01/25 13:50:02;;;;;;;37.38;13.68;;;;;;;11.89;55.74;101846.94;4824083;29;20061;-69
2024/01/25 13:53:06;;;;;;;23.27;7.70;;;;;;;11.91;56.10;101842.50;4823919;29;20065;-70
2024/01/25 13:56:09;;;;;;;26.80;9.63;;;;;;;11.91;55.84;101832.03;4823689;29;20049;-69
2024/01/25 13:59:13;;;;;;;21.58;7.50;;;;;;;11.91;55.68;101822.41;4823965;29;20482;-68
2024/01/25 14:02:16;;;;;;;;;;;;;;;11.88;55.84;101814.66;4823902;29;20103;-67
2024/01/25 14:05:19;;;;;;;16.40;5.85;;;;;;;11.88;55.89;101826.91;4822368;29;19931;-68
2024/01/25 14:08:24;;;;;;;23.13;8.68;;;;;;;11.82;55.69;101833.19;4822828;29;20081;-69
2024/01/25 14:11:28;;;;;;;25.92;9.95;;;;;;;11.88;55.58;101848.72;4823505;29;20467;-69
2024/01/25 14:14:32;;;;;;;27.50;11.27;;;;;;;11.80;56.54;101841.06;4823526;29;20114;-71
2024/01/25 14:17:36;;;;;;;21.98;6.10;;;;;;;11.84;56.33;101839.22;4823112;29;20111;-71
2024/01/25 14:20:40;;;;;;;19.70;5.93;;;;;;;11.79;56.53;101817.56;4823150;29;20119;-69
2024/01/25 14:23:43;;;;;;;17.98;5.63;;;;;;;11.74;56.83;101820.38;4822958;29;20065;-71
2024/01/25 14:26:47;;;;;;;26.27;6.10;;;;;;;11.72;57.15;101822.19;4823213;29;20054;-68
2024/01/25 14:29:50;;;;;;;18.92;6.22;;;;;;;11.67;57.04;101818.84;4823229;29;20065;-68
2024/01/25 14:32:56;;;;;;;27.40;7.63;;;;;;;11.68;57.47;101819.72;4823184;29;20107;-68